Nearby METAR Reports

 

KIND - Indianapolis, Indiana, USA
Distance from station: SW 6mi, 9km
Updated: Feb 23 2024 6:54pm
Partly Cloudy
Partly Cloudy
 Wind from WNW
Wind: WNW 7 mph , 11 km/h
Temperature: 46°F , 8°C
Wind Chill: 42°F , 6°C
Dew Point: 32°F , 0°C
Humidity: 57%
Barometer: 29.72 inHg , 1006.4 hPa
Clouds: Partly Cloudy
Visibility: 10 miles , 16 km
Cloud details: Few Clouds 5000 ft
Partly Cloudy 9000 ft
Partly Cloudy 25000 ft
2024/02/23 23:54 KIND 232354Z 29006KT 10SM FEW050 SCT090 SCT250 08/00 A2972 RMK AO2 SLP067 T00780000 10122 20072 53011
KEYE - Indianapolis, Indiana, USA
Distance from station: NW 5mi, 8km
Updated: Feb 23 2024 6:53pm
Mostly Cloudy
Mostly Cloudy
 Wind from WNW
Wind: WNW 3 mph , 6 km/h
Temperature: 46°F , 8°C
Dew Point: 34°F , 1°C
Humidity: 62%
Barometer: 29.71 inHg , 1006.1 hPa
Clouds: Mostly Cloudy
Visibility: 10 miles , 16 km
Cloud details: Mostly Cloudy 9500 ft
2024/02/23 23:53 KEYE 232353Z AUTO 29003KT 10SM BKN095 08/01 A2971 RMK AO2 SLP064 T00830006 10111 20083 53012
 
KTYQ - Indianapolis Exc, Indiana, USA
Distance from station: N 17mi, 28km
Updated: Feb 23 2024 7:35pm
Overcast
Overcast
 Wind from W
Wind: W 5 mph , 7 km/h
Temperature: 43°F , 6°C
Wind Chill: 40°F , 4°C
Dew Point: 34°F , 1°C
Humidity: 71%
Barometer: 29.72 inHg , 1006.4 hPa
Clouds: Overcast
Visibility: 10 miles , 16 km
Cloud details: Overcast 7000 ft
2024/02/24 00:35 KTYQ 240035Z AUTO 26004KT 10SM OVC070 06/01 A2972 RMK AO2 T00630005
KGEZ - Shelbyville, Indiana, USA
Distance from station: ESE 27mi, 43km
Updated: Feb 23 2024 6:53pm
Clear
Clear
 Wind from WNW
Wind: WNW 8 mph , 13 km/h
Temperature: 48°F , 9°C
Wind Chill: 44°F , 7°C
Dew Point: 30°F , -1°C
Humidity: 50%
Barometer: 29.71 inHg , 1006.1 hPa
Clouds: Clear
Visibility: 10 miles , 16 km
2024/02/23 23:53 KGEZ 232353Z AUTO 30007KT 10SM CLR 09/M01 A2971 RMK AO2 SLP065 T00891006 10128 20089 53017
 
KAID - Anderson Municip, Indiana, USA
Distance from station: NE 40mi, 64km
Updated: Feb 23 2024 7:55pm
Overcast
Overcast
 Wind from calm
Wind: Calm
Temperature: 43°F , 6°C
Dew Point: 30°F , -1°C
Humidity: 61%
Barometer: 29.72 inHg , 1006.4 hPa
Clouds: Overcast
Visibility: 10 miles , 16 km
Cloud details: Overcast 9000 ft
2024/02/24 00:55 KAID 240055Z AUTO 00000KT 10SM OVC090 06/M01 A2972 RMK AO2 T00591006
KBAK - Columbus/Balkala, Indiana, USA
Distance from station: SSE 40mi, 64km
Updated: Feb 23 2024 6:45pm
Clear
Clear
 Wind from WNW
Wind: WNW 6 mph , 9 km/h
Temperature: 45°F , 7°C
Wind Chill: 42°F , 6°C
Dew Point: 30°F , -1°C
Humidity: 57%
Barometer: 29.73 inHg , 1006.8 hPa
Clouds: Clear
Visibility: 10 miles , 16 km
2024/02/23 23:45 KBAK 232345Z 30005KT 10SM CLR 07/M01 A2973
 
KBMG - Bloomington, Indiana, USA
Distance from station: SSW 48mi, 78km
Updated: Feb 23 2024 6:53pm
Clear
Clear
 Wind from W
Wind: W 3 mph , 6 km/h
Temperature: 46°F , 8°C
Dew Point: 30°F , -1°C
Humidity: 53%
Barometer: 29.74 inHg , 1007.1 hPa
Clouds: Clear
Visibility: 10 miles , 16 km
2024/02/23 23:53 KBMG 232353Z 28003KT 10SM CLR 08/M01 A2974 RMK AO2 SLP072 T00781011 10122 20078 53013
KOKK - Kokomo, Indiana, USA
Distance from station: N 53mi, 85km
Updated: Feb 23 2024 6:56pm
Mostly Cloudy
Mostly Cloudy
 Wind from W
Wind: W 7 mph , 11 km/h
Temperature: 45°F , 7°C
Wind Chill: 41°F , 5°C
Dew Point: 34°F , 1°C
Humidity: 66%
Barometer: 29.70 inHg , 1005.8 hPa
Clouds: Mostly Cloudy
Visibility: 10 miles , 16 km
Cloud details: Mostly Cloudy 10000 ft
2024/02/23 23:56 KOKK 232356Z AUTO 27006KT 10SM BKN100 07/01 A2970 RMK AO2 SLP065 T00670011 10100 20067 53012